Time;durP1;ratioP1;P1;durP2;ratioP2;P2;SDS_P1;SDS_P2;PMS_P1;PMS_P2;Temp;Humidity;BMP_temperature;BMP_pressure;BME280_temperature;BME280_humidity;BME280_pressure;Samples;Min_cycle;Max_cycle;Signal;HPM_P1;HPM_P2
2021/04/17 00:01:37;;;;;;;4.82;2.17;;;;;;;1.92;69.47;102653.06;6012518;23;20076;-81
2021/04/17 00:04:41;;;;;;;8.10;2.35;;;;;;;1.93;69.70;102669.44;5961067;24;20019;-80
2021/04/17 00:07:19;;;;;;;11.48;2.33;;;;;;;1.90;70.19;102666.94;5899251;23;20019;-79
2021/04/17 00:09:51;;;;;;;9.80;2.75;;;;;;;1.79;70.00;102658.63;5958606;23;20080;-79
2021/04/17 00:12:35;;;;;;;4.05;2.35;;;;;;;1.80;70.53;102658.56;5976850;23;20099;-78
2021/04/17 00:15:10;;;;;;;5.55;2.30;;;;;;;1.77;70.72;102650.03;5984064;23;20030;-77
2021/04/17 00:18:06;;;;;;;8.63;2.65;;;;;;;1.70;71.69;102639.03;5980465;24;20051;-79
2021/04/17 00:20:35;;;;;;;7.15;2.92;;;;;;;1.83;71.31;102658.50;5900581;24;20076;-76
2021/04/17 00:23:00;;;;;;;8.82;2.60;;;;;;;1.77;71.81;102658.66;5986123;23;20701;-76
2021/04/17 00:25:26;;;;;;;9.55;2.55;;;;;;;1.82;71.72;102654.19;5976846;23;20050;-76
2021/04/17 00:27:52;;;;;;;10.43;2.70;;;;;;;1.82;71.19;102653.38;5952106;23;20028;-78
2021/04/17 00:30:18;;;;;;;8.30;2.80;;;;;;;1.78;71.00;102650.00;5975999;23;20039;-77
2021/04/17 00:32:43;;;;;;;8.43;3.00;;;;;;;1.79;71.65;102643.97;5998551;23;20020;-77
2021/04/17 00:35:09;;;;;;;6.47;2.70;;;;;;;1.86;72.36;102648.03;5976815;24;20020;-77
2021/04/17 00:37:35;;;;;;;13.57;3.17;;;;;;;1.93;71.80;102643.56;5975712;24;20524;-78
2021/04/17 00:40:00;;;;;;;10.00;2.53;;;;;;;2.01;71.44;102649.34;5978216;23;20024;-77
2021/04/17 00:42:26;;;;;;;6.80;2.65;;;;;;;2.05;71.48;102643.19;5976561;24;20093;-78
2021/04/17 00:44:51;;;;;;;5.07;2.70;;;;;;;2.20;71.86;102636.72;5976182;23;20031;-77
2021/04/17 00:47:17;;;;;;;8.23;3.03;;;;;;;2.19;72.45;102647.13;5976172;24;20373;-76
2021/04/17 00:49:42;;;;;;;9.02;2.78;;;;;;;2.31;71.09;102642.41;5975428;23;20028;-77
2021/04/17 00:52:09;;;;;;;6.82;3.10;;;;;;;2.26;72.16;102639.16;5999558;23;20047;-75
2021/04/17 00:54:35;;;;;;;8.55;3.08;;;;;;;2.44;71.33;102644.66;5975162;23;20721;-77
2021/04/17 00:57:00;;;;;;;9.38;3.13;;;;;;;2.64;70.51;102651.81;5976494;24;20024;-77
2021/04/17 00:59:26;;;;;;;7.60;3.33;;;;;;;2.81;69.74;102646.94;5998397;23;20024;-78
2021/04/17 01:01:52;;;;;;;13.80;3.55;;;;;;;2.84;69.70;102649.41;5976648;23;20036;-77
2021/04/17 01:04:31;;;;;;;14.40;2.58;;;;;;;2.83;70.23;102649.47;5950901;23;20467;-76
2021/04/17 01:07:09;;;;;;;6.82;2.70;;;;;;;2.84;71.63;102644.22;5976656;24;20036;-75
2021/04/17 01:09:55;;;;;;;9.20;2.70;;;;;;;2.77;70.91;102645.34;5975143;23;20032;-77
2021/04/17 01:12:27;;;;;;;8.18;3.13;;;;;;;2.65;71.38;102654.31;5975869;23;20464;-77
2021/04/17 01:14:54;;;;;;;10.98;3.80;;;;;;;2.59;71.33;102645.91;5979021;23;20496;-76
2021/04/17 01:17:20;;;;;;;12.73;3.58;;;;;;;2.54;71.42;102643.44;5954091;24;20031;-77
2021/04/17 01:20:00;;;;;;;10.27;3.15;;;;;;;2.45;71.42;102642.03;5978001;23;20024;-76
2021/04/17 01:22:26;;;;;;;13.38;3.08;;;;;;;2.32;71.62;102632.94;5977463;24;20691;-75
2021/04/17 01:25:05;;;;;;;8.30;3.40;;;;;;;2.23;71.98;102633.22;5975512;23;20020;-75
2021/04/17 01:27:31;;;;;;;11.73;3.25;;;;;;;2.12;72.62;102633.50;5976592;24;20020;-76
2021/04/17 01:29:57;;;;;;;10.60;3.33;;;;;;;2.01;73.89;102638.16;5976096;23;20083;-75
2021/04/17 01:32:24;;;;;;;5.97;2.63;;;;;;;1.94;74.23;102638.34;5977404;24;20027;-76
2021/04/17 01:34:50;;;;;;;8.23;2.90;;;;;;;1.89;73.77;102636.78;5977921;24;20020;-78
2021/04/17 01:37:16;;;;;;;5.28;2.42;;;;;;;1.85;73.63;102632.59;5981170;23;20516;-76
2021/04/17 01:39:42;;;;;;;11.90;3.33;;;;;;;1.77;73.47;102626.75;5978710;23;20100;-76
2021/04/17 01:42:15;;;;;;;14.75;2.53;;;;;;;1.86;73.18;102626.50;5979294;23;20514;-77
2021/04/17 01:44:45;;;;;;;6.80;2.50;;;;;;;1.85;73.30;102624.81;6004120;23;20023;-76
2021/04/17 01:47:13;;;;;;;6.22;2.60;;;;;;;1.87;73.46;102626.47;6002736;23;20028;-77
2021/04/17 01:49:41;;;;;;;7.72;2.50;;;;;;;1.88;74.18;102622.97;5979350;23;20050;-76
2021/04/17 01:52:10;;;;;;;7.45;2.80;;;;;;;1.97;73.69;102628.78;5977965;24;20024;-76
2021/04/17 01:54:43;;;;;;;6.00;2.88;;;;;;;1.97;74.00;102619.28;5979146;24;20031;-76
2021/04/17 01:57:12;;;;;;;7.78;2.50;;;;;;;2.00;74.34;102620.91;6002583;23;20024;-76
2021/04/17 01:59:39;;;;;;;6.10;2.50;;;;;;;2.09;73.53;102623.25;5980943;23;20020;-77
2021/04/17 02:02:05;;;;;;;10.63;2.47;;;;;;;2.07;74.30;102606.91;5981242;23;20024;-75
2021/04/17 02:04:30;;;;;;;10.85;2.88;;;;;;;2.16;74.36;102624.75;6001907;23;20030;-75
2021/04/17 02:06:55;;;;;;;8.05;2.47;;;;;;;2.25;74.40;102614.13;5956188;24;20020;-76
2021/04/17 02:09:21;;;;;;;8.25;2.67;;;;;;;2.26;74.23;102612.38;5956695;24;20114;-76
2021/04/17 02:11:46;;;;;;;11.80;2.90;;;;;;;2.36;74.42;102616.41;5978681;24;20024;-76
2021/04/17 02:14:13;;;;;;;6.82;2.55;;;;;;;2.37;74.69;102617.25;5992092;23;20028;-79
2021/04/17 02:17:05;;;;;;;7.70;2.53;;;;;;;2.41;74.48;102592.94;6006057;23;20004;-78
2021/04/17 02:19:48;;;;;;;6.70;2.55;;;;;;;2.45;74.22;102595.38;6005851;23;20049;-75
2021/04/17 02:22:15;;;;;;;6.13;2.67;;;;;;;2.48;74.35;102592.69;6006428;23;20008;-76
2021/04/17 02:24:41;;;;;;;5.72;2.60;;;;;;;2.55;74.58;102595.09;6009117;23;20045;-74
2021/04/17 02:27:07;;;;;;;9.63;2.42;;;;;;;2.60;74.58;102594.06;5982660;24;20034;-77
2021/04/17 02:29:33;;;;;;;8.05;2.63;;;;;;;2.69;74.94;102598.06;6005191;23;20106;-77
2021/04/17 02:31:58;;;;;;;6.90;2.30;;;;;;;2.67;74.23;102592.94;5981372;23;20402;-79
2021/04/17 02:34:24;;;;;;;6.95;2.33;;;;;;;2.79;71.87;102593.44;5984008;23;20048;-76
2021/04/17 02:36:50;;;;;;;9.27;2.50;;;;;;;3.05;69.72;102588.25;5980882;23;20024;-79
2021/04/17 02:39:15;;;;;;;4.63;2.22;;;;;;;3.16;69.82;102582.66;5979552;23;20053;-79
2021/04/17 02:41:41;;;;;;;9.05;2.40;;;;;;;3.15;70.30;102585.34;5984240;23;20024;-79
2021/04/17 02:44:06;;;;;;;8.82;2.47;;;;;;;3.23;71.29;102584.16;5983685;23;20040;-77
2021/04/17 02:46:32;;;;;;;6.43;2.38;;;;;;;3.25;69.87;102584.09;5984280;23;20095;-77
2021/04/17 02:48:58;;;;;;;7.55;2.38;;;;;;;3.30;69.31;102584.81;5981806;23;20111;-77
2021/04/17 02:51:23;;;;;;;7.78;2.38;;;;;;;3.36;69.19;102575.94;6004617;23;20115;-76
2021/04/17 02:53:50;;;;;;;8.88;2.47;;;;;;;3.38;68.23;102574.16;5981308;24;20027;-77
2021/04/17 02:56:15;;;;;;;10.10;2.45;;;;;;;3.45;69.22;102580.81;5980470;23;20067;-78
2021/04/17 02:58:41;;;;;;;6.57;2.20;;;;;;;3.41;68.17;102568.84;5980020;23;20111;-77
2021/04/17 03:01:07;;;;;;;4.35;2.05;;;;;;;3.40;69.06;102570.59;6002046;23;20028;-76
2021/04/17 03:03:32;;;;;;;5.10;2.25;;;;;;;3.44;68.13;102559.19;5978339;23;20035;-77
2021/04/17 03:05:58;;;;;;;4.95;2.58;;;;;;;3.44;67.54;102563.53;5980428;23;20020;-77
2021/04/17 03:08:23;;;;;;;8.27;2.58;;;;;;;3.45;68.72;102557.47;5980756;23;20084;-79
2021/04/17 03:10:49;;;;;;;6.07;2.30;;;;;;;3.45;69.72;102550.53;5982441;23;20023;-79
2021/04/17 03:13:15;;;;;;;6.78;2.55;;;;;;;3.43;69.25;102548.91;5982011;23;20023;-79
2021/04/17 03:15:41;;;;;;;9.15;2.72;;;;;;;3.41;69.95;102548.06;6006025;23;20058;-77
2021/04/17 03:18:07;;;;;;;7.40;2.15;;;;;;;3.37;69.82;102539.59;6008230;23;20024;-77
2021/04/17 03:20:32;;;;;;;8.82;2.70;;;;;;;3.42;67.86;102547.19;6006675;23;20024;-77
2021/04/17 03:22:58;;;;;;;7.13;2.70;;;;;;;3.47;67.44;102548.72;6008201;23;20023;-76
2021/04/17 03:25:23;;;;;;;9.63;2.90;;;;;;;3.48;67.88;102539.16;6007155;23;20043;-79
2021/04/17 03:27:49;;;;;;;8.65;2.38;;;;;;;3.46;68.80;102535.78;6007310;23;20056;-77
2021/04/17 03:30:17;;;;;;;6.00;2.80;;;;;;;3.31;69.71;102540.66;5982389;23;20051;-77
2021/04/17 03:32:43;;;;;;;11.55;3.78;;;;;;;3.22;68.86;102534.94;5981731;23;20026;-76
2021/04/17 03:35:11;;;;;;;6.10;2.55;;;;;;;3.19;69.55;102535.91;6006712;23;20027;-77
2021/04/17 03:37:39;;;;;;;7.57;3.30;;;;;;;3.29;67.76;102544.19;5981799;23;20020;-76
2021/04/17 03:40:07;;;;;;;9.45;2.95;;;;;;;3.35;67.75;102540.53;6007978;23;20137;-77
2021/04/17 03:42:33;;;;;;;7.22;2.70;;;;;;;3.36;67.00;102542.22;5982662;23;20032;-75
2021/04/17 03:44:58;;;;;;;8.73;2.60;;;;;;;3.16;68.71;102543.78;5982415;23;20032;-77
2021/04/17 03:47:24;;;;;;;9.65;2.60;;;;;;;3.15;67.70;102543.84;5982942;23;20032;-76
2021/04/17 03:49:49;;;;;;;8.68;2.55;;;;;;;3.09;67.78;102545.75;6008015;23;20079;-76
2021/04/17 03:52:15;;;;;;;9.48;2.58;;;;;;;3.03;67.66;102548.56;5981587;23;20027;-78
2021/04/17 03:54:40;;;;;;;6.40;2.78;;;;;;;2.86;68.41;102549.16;5983156;23;20019;-75
2021/04/17 03:57:07;;;;;;;6.32;2.38;;;;;;;2.78;68.83;102540.75;5981503;23;20031;-76
2021/04/17 03:59:32;;;;;;;9.40;2.65;;;;;;;2.59;69.63;102548.31;5982891;23;20106;-76
2021/04/17 04:01:58;;;;;;;9.45;2.60;;;;;;;2.60;68.80;102550.00;5981307;23;20046;-77
2021/04/17 04:04:23;;;;;;;12.65;3.15;;;;;;;2.50;69.65;102548.59;6006876;23;20038;-79
2021/04/17 04:06:49;;;;;;;14.30;3.10;;;;;;;2.55;69.34;102551.91;6009317;23;20028;-78
2021/04/17 04:09:14;;;;;;;9.02;3.13;;;;;;;2.52;69.54;102552.00;6007652;23;20488;-77
2021/04/17 04:11:40;;;;;;;8.85;2.85;;;;;;;2.41;70.23;102547.19;5959469;23;20019;-76
2021/04/17 04:14:06;;;;;;;8.25;2.70;;;;;;;2.45;69.81;102551.34;6004884;23;20083;-77
2021/04/17 04:16:31;;;;;;;4.82;2.70;;;;;;;2.46;70.03;102552.19;5983799;23;20455;-77
2021/04/17 04:18:56;;;;;;;5.68;2.85;;;;;;;2.48;70.56;102555.59;5982102;23;20040;-79
2021/04/17 04:21:22;;;;;;;9.13;2.92;;;;;;;2.39;70.33;102546.34;5982933;23;20083;-76
2021/04/17 04:23:47;;;;;;;8.45;3.08;;;;;;;2.41;71.25;102554.94;5981753;23;20023;-79
2021/04/17 04:26:13;;;;;;;9.68;3.40;;;;;;;2.37;72.17;102552.50;6008341;23;20019;-78
2021/04/17 04:28:38;;;;;;;4.57;2.25;;;;;;;2.34;72.39;102554.28;5982433;23;20031;-78
2021/04/17 04:31:04;;;;;;;8.57;2.70;;;;;;;2.36;71.92;102554.25;6005873;23;20051;-77
2021/04/17 04:33:29;;;;;;;7.70;3.08;;;;;;;2.30;72.21;102550.09;5983577;23;20035;-76
2021/04/17 04:35:55;;;;;;;11.48;3.28;;;;;;;2.43;71.33;102547.09;6005789;23;20023;-76
2021/04/17 04:38:21;;;;;;;11.07;3.25;;;;;;;2.56;71.33;102551.00;5983269;23;20031;-77
2021/04/17 04:40:46;;;;;;;10.48;3.13;;;;;;;2.57;71.80;102550.09;6006430;23;20023;-76
2021/04/17 04:43:11;;;;;;;6.72;3.00;;;;;;;2.68;71.01;102547.16;5961275;23;20020;-77
2021/04/17 04:45:38;;;;;;;8.13;3.00;;;;;;;2.78;70.68;102553.72;6006712;23;20026;-79
2021/04/17 04:48:04;;;;;;;10.20;3.00;;;;;;;2.84;71.22;102556.09;6005829;23;20520;-78
2021/04/17 04:50:30;;;;;;;11.00;3.70;;;;;;;2.85;70.06;102550.03;6005670;23;20024;-77
2021/04/17 04:52:55;;;;;;;8.85;3.40;;;;;;;2.83;70.24;102558.78;5982191;23;20555;-77
2021/04/17 04:55:21;;;;;;;7.78;2.92;;;;;;;2.93;68.97;102549.75;5980869;23;20024;-78
2021/04/17 04:57:46;;;;;;;14.25;3.63;;;;;;;2.95;69.87;102557.50;6005256;23;20035;-77
2021/04/17 05:00:12;;;;;;;11.98;3.20;;;;;;;2.91;69.78;102548.97;6006594;23;20038;-79
2021/04/17 05:02:38;;;;;;;10.70;3.90;;;;;;;3.00;69.45;102551.25;5983320;23;20359;-77
2021/04/17 05:05:04;;;;;;;9.38;3.25;;;;;;;3.02;69.33;102549.44;6004332;23;20099;-77
2021/04/17 05:07:30;;;;;;;7.72;2.80;;;;;;;3.09;69.24;102555.28;5981684;23;20023;-76
2021/04/17 05:09:55;;;;;;;11.75;3.42;;;;;;;3.15;70.72;102554.22;5983248;23;20034;-78
2021/04/17 05:12:21;;;;;;;8.35;2.97;;;;;;;3.19;69.69;102546.25;6008011;23;20098;-78
2021/04/17 05:14:46;;;;;;;7.50;3.30;;;;;;;3.19;69.08;102542.84;5983516;23;20031;-80
2021/04/17 05:17:12;;;;;;;9.77;3.17;;;;;;;3.27;69.85;102553.78;6006424;23;20090;-79
2021/04/17 05:19:39;;;;;;;8.20;2.90;;;;;;;3.30;69.33;102545.88;6006515;23;20015;-79
2021/04/17 05:22:05;;;;;;;8.63;2.97;;;;;;;3.28;70.39;102540.75;5984202;23;20028;-79
2021/04/17 05:24:31;;;;;;;7.22;3.15;;;;;;;3.36;69.64;102545.66;5981072;23;20080;-77
2021/04/17 05:26:56;;;;;;;13.48;3.42;;;;;;;3.38;70.12;102545.63;6007549;23;20032;-77
2021/04/17 05:29:22;;;;;;;10.45;3.60;;;;;;;3.39;69.14;102548.16;5981979;23;20020;-75
2021/04/17 05:31:47;;;;;;;6.97;3.13;;;;;;;3.45;68.74;102549.69;5983446;23;20024;-76
2021/04/17 05:34:13;;;;;;;9.73;3.40;;;;;;;3.47;69.28;102551.31;5982887;23;20028;-74
2021/04/17 05:36:38;;;;;;;11.30;3.22;;;;;;;3.53;70.44;102547.63;5961614;23;20134;-77
2021/04/17 05:39:04;;;;;;;7.25;3.10;;;;;;;3.59;70.93;102551.75;5982045;23;20034;-77
2021/04/17 05:41:30;;;;;;;8.52;3.63;;;;;;;3.66;68.72;102541.09;5984204;23;20020;-76
2021/04/17 05:43:56;;;;;;;10.20;3.35;;;;;;;3.69;68.58;102540.13;6006076;23;20455;-77
2021/04/17 05:46:21;;;;;;;9.80;3.15;;;;;;;3.74;68.50;102542.56;6008027;23;20516;-77
2021/04/17 05:48:47;;;;;;;6.95;3.30;;;;;;;3.77;68.56;102537.22;6006572;23;20079;-77
2021/04/17 05:51:12;;;;;;;9.48;3.30;;;;;;;3.79;67.77;102538.03;6008514;23;20027;-79
2021/04/17 05:53:38;;;;;;;13.43;3.63;;;;;;;3.81;68.14;102531.88;5983964;23;20110;-78
2021/04/17 05:56:04;;;;;;;9.35;3.33;;;;;;;3.79;69.22;102535.44;6008463;23;20044;-76
2021/04/17 05:58:29;;;;;;;8.02;3.17;;;;;;;3.83;68.25;102530.06;5960372;23;20050;-76
2021/04/17 06:00:55;;;;;;;9.02;3.08;;;;;;;3.85;69.64;102530.84;5985040;23;20026;-76
2021/04/17 06:03:20;;;;;;;10.18;2.95;;;;;;;3.98;69.52;102535.59;6008848;23;20028;-77
2021/04/17 06:05:46;;;;;;;10.75;3.00;;;;;;;3.90;67.92;102533.28;6009283;23;20403;-75
2021/04/17 06:08:11;;;;;;;8.20;3.25;;;;;;;3.98;68.91;102531.22;5984242;23;20087;-77
2021/04/17 06:10:36;;;;;;;9.60;3.17;;;;;;;4.12;68.77;102530.66;5982708;23;20024;-77
2021/04/17 06:13:02;;;;;;;12.93;3.95;;;;;;;4.21;68.63;102527.72;6008532;23;20361;-77
2021/04/17 06:15:27;;;;;;;6.35;2.90;;;;;;;4.35;67.57;102534.09;5982881;23;20020;-77
2021/04/17 06:17:53;;;;;;;10.43;3.40;;;;;;;4.46;67.07;102535.38;5982830;23;20028;-77
2021/04/17 06:20:19;;;;;;;6.10;3.20;;;;;;;4.39;67.42;102533.06;6007393;23;20123;-78
2021/04/17 06:22:44;;;;;;;8.57;3.28;;;;;;;4.43;67.00;102527.69;5983893;23;20058;-76
2021/04/17 06:25:11;;;;;;;9.15;3.55;;;;;;;4.54;67.25;102523.81;5982618;23;20027;-77
2021/04/17 06:27:36;;;;;;;6.57;2.97;;;;;;;4.54;67.29;102516.00;5982962;23;20075;-79
2021/04/17 06:30:04;;;;;;;9.50;3.63;;;;;;;4.61;66.65;102518.28;5978428;23;20047;-78
2021/04/17 06:32:29;;;;;;;8.98;3.28;;;;;;;4.73;67.25;102513.47;6004488;23;20077;-76
2021/04/17 06:34:55;;;;;;;6.53;3.45;;;;;;;4.93;68.56;102513.47;5980117;23;20548;-76
2021/04/17 06:37:20;;;;;;;8.90;3.60;;;;;;;5.04;67.20;102510.41;5981327;23;20035;-75
2021/04/17 06:39:46;;;;;;;8.23;3.28;;;;;;;5.07;66.63;102511.13;5981737;23;20369;-75
2021/04/17 06:42:15;;;;;;;8.43;3.30;;;;;;;5.20;66.55;102511.44;5982745;23;20027;-77
2021/04/17 06:44:44;;;;;;;8.50;3.60;;;;;;;5.23;65.29;102519.06;5981801;23;20024;-75
2021/04/17 06:47:12;;;;;;;12.23;3.58;;;;;;;5.21;64.31;102514.88;5955949;23;20512;-74
2021/04/17 06:49:39;;;;;;;7.88;3.30;;;;;;;5.18;65.46;102501.97;5983079;23;20024;-76
2021/04/17 06:52:06;;;;;;;9.85;3.88;;;;;;;5.33;64.78;102510.88;5982067;23;20104;-78
2021/04/17 06:54:32;;;;;;;10.57;3.60;;;;;;;5.34;66.66;102497.78;5959538;23;20027;-74
2021/04/17 06:56:57;;;;;;;9.80;3.17;;;;;;;5.50;66.20;102497.09;5993036;23;20103;-75
2021/04/17 06:59:23;;;;;;;8.55;3.17;;;;;;;5.59;65.01;102507.91;5960185;23;20020;-78
2021/04/17 07:01:50;;;;;;;8.80;3.90;;;;;;;5.72;63.85;102515.16;5983359;23;20026;-78
2021/04/17 07:04:16;;;;;;;12.48;3.70;;;;;;;5.85;66.21;102513.69;5982534;23;20098;-77
2021/04/17 07:06:42;;;;;;;7.55;3.33;;;;;;;5.91;64.24;102515.16;5985315;23;20027;-76
2021/04/17 07:09:08;;;;;;;9.05;3.88;;;;;;;5.87;64.53;102506.63;5983267;23;20458;-77
2021/04/17 07:11:35;;;;;;;7.68;3.80;;;;;;;6.00;64.09;102509.53;5982963;23;20641;-77
2021/04/17 07:14:12;;;;;;;9.75;3.47;;;;;;;6.07;65.25;102499.69;5982815;23;20020;-77
2021/04/17 07:17:02;;;;;;;6.05;3.10;;;;;;;6.31;63.17;102510.63;6009413;23;20026;-76
2021/04/17 07:19:46;;;;;;;8.60;3.25;;;;;;;6.47;62.76;102502.94;5982116;23;20015;-75
2021/04/17 07:22:15;;;;;;;10.98;3.67;;;;;;;6.46;62.46;102496.88;5982278;23;20015;-77
2021/04/17 07:24:41;;;;;;;9.05;3.45;;;;;;;6.69;61.69;102498.31;5982531;23;20023;-77
2021/04/17 07:27:07;;;;;;;10.32;3.50;;;;;;;6.85;62.81;102502.75;5959662;23;20027;-77
2021/04/17 07:29:40;;;;;;;5.97;3.03;;;;;;;6.90;61.85;102501.56;5981007;23;20224;-74
2021/04/17 07:32:16;;;;;;;7.60;3.40;;;;;;;7.04;62.20;102502.63;6004292;23;20032;-77
2021/04/17 07:35:02;;;;;;;10.02;3.13;;;;;;;7.21;62.33;102495.59;6005874;23;20019;-76
2021/04/17 07:37:27;;;;;;;11.35;3.08;;;;;;;7.35;60.25;102481.81;6007312;23;20019;-74
2021/04/17 07:39:53;;;;;;;12.52;3.30;;;;;;;7.75;59.94;102479.59;5982369;23;20027;-75
2021/04/17 07:42:18;;;;;;;8.27;3.10;;;;;;;7.85;59.05;102479.09;5960287;23;20036;-78
2021/04/17 07:44:48;;;;;;;6.35;3.00;;;;;;;7.72;58.76;102484.16;5982810;23;20435;-76
2021/04/17 07:47:30;;;;;;;5.95;2.58;;;;;;;7.64;58.64;102479.34;5982255;23;20465;-74
2021/04/17 07:50:07;;;;;;;12.13;3.80;;;;;;;7.77;58.63;102472.53;6007783;23;20032;-75
2021/04/17 07:52:34;;;;;;;4.85;2.78;;;;;;;7.88;59.12;102469.31;5982547;23;20083;-75
2021/04/17 07:54:59;;;;;;;8.10;3.63;;;;;;;7.84;58.87;102473.03;5982592;23;20127;-75
2021/04/17 07:57:46;;;;;;;7.57;3.30;;;;;;;8.04;57.38;102471.06;5983182;23;20047;-75
2021/04/17 08:00:15;;;;;;;6.72;3.03;;;;;;;8.11;57.17;102465.38;6006055;23;20031;-76
2021/04/17 08:02:47;;;;;;;10.10;2.97;;;;;;;8.28;57.89;102466.19;5981487;23;20023;-75
2021/04/17 08:05:13;;;;;;;14.95;3.83;;;;;;;8.34;56.14;102463.22;6006328;23;20058;-74
2021/04/17 08:07:39;;;;;;;6.57;3.05;;;;;;;8.22;55.65;102461.31;5958542;23;20111;-77
2021/04/17 08:10:06;;;;;;;8.73;2.70;;;;;;;8.17;55.46;102472.03;5983106;23;20028;-74
2021/04/17 08:12:36;;;;;;;8.90;2.83;;;;;;;8.18;55.66;102474.56;5980968;23;20092;-77
2021/04/17 08:15:08;;;;;;;7.18;2.80;;;;;;;8.20;55.00;102469.25;5960023;23;20024;-75
2021/04/17 08:17:41;;;;;;;7.13;2.42;;;;;;;8.38;55.12;102476.03;5959291;23;20024;-76
2021/04/17 08:20:07;;;;;;;;;;;;;;;8.30;54.38;102483.47;5984049;23;20024;-76
2021/04/17 08:22:34;;;;;;;8.13;3.35;;;;;;;8.33;54.34;102478.06;5984875;23;20331;-76
2021/04/17 08:25:00;;;;;;;8.65;3.00;;;;;;;8.51;54.29;102476.19;6010316;23;20030;-75
2021/04/17 08:27:30;;;;;;;6.57;2.45;;;;;;;8.73;52.38;102480.97;5985180;23;20035;-77
2021/04/17 08:29:57;;;;;;;5.55;2.55;;;;;;;8.88;52.45;102471.34;5982501;23;21271;-75
2021/04/17 08:32:28;;;;;;;7.07;2.85;;;;;;;8.94;52.75;102478.00;5958523;23;20019;-77
2021/04/17 08:35:02;;;;;;;6.47;2.40;;;;;;;8.98;52.64;102481.25;5982429;23;20024;-76
2021/04/17 08:37:29;;;;;;;6.85;2.35;;;;;;;9.09;49.77;102479.66;6006751;23;20024;-75
2021/04/17 08:39:54;;;;;;;3.95;1.90;;;;;;;9.10;51.06;102488.38;5979844;23;20059;-75
2021/04/17 08:42:45;;;;;;;8.45;2.30;;;;;;;9.25;49.14;102486.56;5958102;23;20023;-76
2021/04/17 08:45:19;;;;;;;4.95;2.03;;;;;;;9.24;49.49;102480.50;6005247;23;20816;-76
2021/04/17 08:47:51;;;;;;;4.85;1.85;;;;;;;9.47;48.71;102476.44;5980451;23;20043;-76
2021/04/17 08:50:35;;;;;;;2.47;1.77;;;;;;;9.55;47.77;102468.13;6004890;23;20099;-76
2021/04/17 08:53:11;;;;;;;6.25;2.00;;;;;;;9.77;49.07;102478.03;5981113;23;20508;-76
2021/04/17 08:55:36;;;;;;;3.72;1.55;;;;;;;9.90;45.79;102468.44;5981341;23;20095;-74
2021/04/17 08:58:25;;;;;;;4.15;1.60;;;;;;;9.95;44.50;102470.78;5958087;23;20023;-77
2021/04/17 09:00:50;;;;;;;5.78;1.70;;;;;;;10.33;44.96;102462.19;5956427;23;20028;-76
2021/04/17 09:03:40;;;;;;;4.13;1.80;;;;;;;10.16;44.01;102463.28;5957168;23;20019;-76
2021/04/17 09:06:10;;;;;;;3.80;1.58;;;;;;;9.98;43.72;102465.31;5981421;23;20023;-76
2021/04/17 09:08:39;;;;;;;3.03;1.30;;;;;;;10.05;42.79;102461.34;5957792;23;20150;-76
2021/04/17 09:11:36;;;;;;;5.15;1.48;;;;;;;10.17;42.38;102454.47;5979906;23;20019;-75
2021/04/17 09:14:03;;;;;;;4.50;1.58;;;;;;;10.25;43.42;102441.69;5980295;23;20043;-76
2021/04/17 09:16:37;;;;;;;5.60;1.63;;;;;;;10.36;43.12;102448.00;5959296;23;20019;-75
2021/04/17 09:19:02;;;;;;;2.30;1.40;;;;;;;10.46;42.71;102443.84;5983971;23;20028;-79
2021/04/17 09:21:28;;;;;;;3.65;1.50;;;;;;;10.65;42.22;102446.06;5989881;23;20075;-79
2021/04/17 09:23:54;;;;;;;5.35;1.88;;;;;;;10.42;42.59;102445.84;5982897;23;20027;-74
2021/04/17 09:26:29;;;;;;;2.45;1.58;;;;;;;10.56;42.83;102450.13;5959046;23;20044;-76
2021/04/17 09:29:15;;;;;;;4.97;1.70;;;;;;;10.57;43.47;102453.59;5071123;27;20440;-73
2021/04/17 09:31:41;;;;;;;5.50;1.77;;;;;;;10.38;43.35;102448.75;5039351;28;20049;-77
2021/04/17 09:34:11;;;;;;;1.75;1.40;;;;;;;10.62;43.54;102454.13;5030048;28;20060;-76
2021/04/17 09:36:37;;;;;;;4.80;1.65;;;;;;;11.04;43.48;102450.31;5016252;28;20467;-77
2021/04/17 09:39:22;;;;;;;5.65;1.98;;;;;;;11.46;42.80;102447.38;5004608;28;20037;-76
2021/04/17 09:41:50;;;;;;;3.35;1.73;;;;;;;11.60;41.52;102441.97;5028701;28;20053;-75
2021/04/17 09:44:16;;;;;;;4.13;1.90;;;;;;;11.53;41.14;102450.38;5031553;28;20049;-79
2021/04/17 09:46:42;;;;;;;2.13;1.50;;;;;;;11.48;41.71;102450.72;5046369;28;20570;-74
2021/04/17 09:49:07;;;;;;;4.53;1.70;;;;;;;11.60;41.80;102454.25;5043793;28;20056;-74
2021/04/17 09:51:33;;;;;;;4.75;1.60;;;;;;;11.44;41.22;102444.00;5049110;28;20045;-77
2021/04/17 09:54:04;;;;;;;4.40;1.40;;;;;;;11.50;41.16;102443.56;5033646;28;20132;-76
2021/04/17 09:56:32;;;;;;;5.38;1.40;;;;;;;11.76;41.33;102452.19;5045509;28;20045;-77
2021/04/17 09:59:05;;;;;;;6.65;1.50;;;;;;;12.03;40.94;102440.59;5061278;28;20123;-75
2021/04/17 10:01:30;;;;;;;;;;;;;;;11.97;40.18;102435.81;5021327;28;20049;-78
2021/04/17 10:03:59;;;;;;;3.70;1.63;;;;;;;12.21;40.55;102441.03;5044275;28;19920;-76
2021/04/17 10:06:32;;;;;;;2.92;1.90;;;;;;;12.44;41.44;102437.47;5032601;28;20331;-77
2021/04/17 10:09:06;;;;;;;7.03;1.40;;;;;;;12.48;42.79;102437.25;5044425;28;20063;-75
2021/04/17 10:11:31;;;;;;;5.28;1.50;;;;;;;12.51;40.87;102432.59;5021043;28;20047;-76
2021/04/17 10:13:57;;;;;;;2.08;1.48;;;;;;;12.53;40.79;102432.47;5026740;28;20092;-76
2021/04/17 10:16:42;;;;;;;5.00;1.70;;;;;;;12.50;41.25;102433.53;5044414;28;20040;-75
2021/04/17 10:19:11;;;;;;;3.58;1.73;;;;;;;12.52;41.25;102429.00;5039041;28;20044;-75
2021/04/17 10:21:37;;;;;;;5.15;1.40;;;;;;;12.50;40.88;102419.53;5075134;28;20048;-75
2021/04/17 10:24:27;;;;;;;4.60;1.65;;;;;;;12.59;42.09;102422.31;5051002;28;20040;-76
2021/04/17 10:26:54;;;;;;;3.20;1.52;;;;;;;12.66;41.26;102420.03;5030106;28;20041;-76
2021/04/17 10:29:32;;;;;;;3.40;1.65;;;;;;;12.57;42.33;102410.22;5042578;28;20136;-77
2021/04/17 10:31:59;;;;;;;4.18;1.58;;;;;;;12.65;42.62;102413.09;5041610;28;20105;-75
2021/04/17 10:34:25;;;;;;;5.50;1.75;;;;;;;12.73;42.23;102405.41;5040040;28;20041;-75
2021/04/17 10:37:06;;;;;;;2.97;1.60;;;;;;;12.38;42.04;102413.44;5052919;28;20052;-74
2021/04/17 10:39:32;;;;;;;3.95;1.98;;;;;;;11.64;44.62;102406.63;5046458;28;20049;-75
2021/04/17 10:42:00;;;;;;;5.13;1.77;;;;;;;12.23;43.59;102402.28;5022592;28;20064;-76
2021/04/17 10:44:25;;;;;;;6.72;1.70;;;;;;;12.52;42.58;102409.75;4986589;28;20045;-74
2021/04/17 10:46:51;;;;;;;4.10;1.50;;;;;;;12.38;41.84;102414.28;5043617;28;20045;-75
2021/04/17 10:49:37;;;;;;;3.13;1.60;;;;;;;12.03;41.25;102403.78;5020377;28;20053;-76
2021/04/17 10:52:06;;;;;;;6.55;1.75;;;;;;;12.02;42.50;102402.13;5011360;28;20521;-78
2021/04/17 10:54:32;;;;;;;4.70;1.50;;;;;;;12.02;43.44;102415.28;4996588;28;20049;-78
2021/04/17 10:57:06;;;;;;;3.55;1.40;;;;;;;12.55;42.75;102401.63;5013740;28;20041;-78
2021/04/17 10:59:52;;;;;;;5.10;1.55;;;;;;;12.14;40.31;102395.91;5029368;28;20045;-75
2021/04/17 11:02:49;;;;;;;4.95;1.70;;;;;;;12.71;40.47;102396.81;5029760;28;20423;-78
2021/04/17 11:05:15;;;;;;;7.40;1.42;;;;;;;12.82;40.83;102393.34;5032618;28;20041;-75
2021/04/17 11:07:40;;;;;;;7.18;1.48;;;;;;;13.25;41.42;102403.91;5030376;28;20060;-76
2021/04/17 11:10:08;;;;;;;4.25;1.60;;;;;;;13.40;39.79;102393.16;5011694;28;20049;-77
2021/04/17 11:12:36;;;;;;;5.85;1.48;;;;;;;13.46;40.62;102391.81;5029936;28;20545;-77
2021/04/17 11:15:14;;;;;;;10.15;1.90;;;;;;;14.05;38.76;102393.09;4995233;28;20099;-77
2021/04/17 11:17:40;;;;;;;3.90;1.23;;;;;;;14.01;36.15;102393.38;4992964;28;20500;-77
2021/04/17 11:20:24;;;;;;;5.60;1.00;;;;;;;13.40;38.48;102393.16;5022858;28;20050;-75
2021/04/17 11:22:49;;;;;;;4.03;1.33;;;;;;;12.75;38.95;102390.38;5016006;28;20064;-77
2021/04/17 11:25:15;;;;;;;3.63;1.20;;;;;;;12.89;38.94;102393.72;5001613;28;20041;-75
2021/04/17 11:27:41;;;;;;;5.45;1.35;;;;;;;13.15;38.35;102397.72;5045112;28;20041;-76
2021/04/17 11:30:08;;;;;;;6.60;1.17;;;;;;;13.92;38.00;102386.22;5012298;28;20504;-76
2021/04/17 11:32:35;;;;;;;5.05;1.15;;;;;;;14.32;36.82;102389.94;5008343;28;20767;-76
2021/04/17 11:35:08;;;;;;;5.32;1.25;;;;;;;14.58;37.41;102395.66;5020037;28;20484;-78
2021/04/17 11:37:33;;;;;;;3.00;1.10;;;;;;;14.37;35.30;102395.63;5024862;28;20458;-76
2021/04/17 11:39:59;;;;;;;3.15;1.00;;;;;;;13.91;36.84;102394.25;5028233;28;20060;-77